Terminal Aerodrome Forecast
Issued by NWS Wilmington, OH

Current Version | Previous Version | Graphics & Text | Print | Product List | Glossary On
Versions: 1 2 3 4 5 6 7 8 9 10 11 12 13 14 15 16 17 18 19 20
362
FTUS41 KILN 190539
TAFCMH
TAF
KCMH 190539Z 1906/2006 30016G26KT P6SM VCSH OVC015
     FM191100 30012G22KT P6SM OVC025
     FM192300 28012KT P6SM BKN035
     FM200200 28009KT P6SM FEW090=

USA.gov is the U.S. government's official web portal to all federal, state and local government web resources and services.